Batavia, Iowa
Current Conditions -  °F | °C
As of 2:35 AM on Friday 28 Nov 2014 (Local Time) from KFFL Reporting Station
Broken Clouds Broken Clouds  
Wind Chill:   Ceiling: 15000
Heat Index: 14°   Visibility: 10mi
Dew Point:   Wind: 10mph
Humidity: 67%   Direction: 130°SE
Pressure: 30.26"   Gusts: NA
Location:  40.99°N, 92.17°W
Report Text: KFFL 280835Z AUTO 13009KT 10SM SCT120 BKN150 M10/M15 A3026 RMK AO2
Loading
Personal Weather Stations






























Interactive Weather Map New forecast layout! Learn more

10-Day Weather Forecast

Advertisements
Track Severe Weather on mobile